Flight Track Log - Related Links

Times and Time Zones

All times are in EST time to prevent confusion due to time zone crossing. See the N6184V flight status page for this flight to view local times or setup timezone preferences in your user account.

Time Position Orientation Groundspeed Altitude Reporting Facility
EST Latitude Longitude Course Direction KTS MPH feet Rate Location/Type
Fri 08:36:36 AM 28.3000 -81.4333 280° West 78 90 400  Level Orlando TRACON
Fri 08:37:00 AM 28.3000 -81.4500 270° West 69 79 700 714 Climbing Orlando TRACON
Fri 08:38:00 AM 28.2833 -81.4833 240° Southwest 99 114 1,400 619 Climbing Orlando TRACON
Fri 08:39:06 AM 28.2833 -81.5000 270° West 99 114 2,000 286 Climbing Orlando TRACON
Fri 08:40:06 AM 28.2833 -81.5500 270° West 120 138 2,000 368 Level Orlando TRACON
Fri 08:41:00 AM 28.2667 -81.5667 221° Southwest 109 125 2,700 574 Climbing Orlando TRACON
Fri 08:42:00 AM 28.2898 -81.4371 280° West  Level Estimated
Fri 08:42:01 AM 28.2667 -81.6000 270° West 83 96 3,100  Level Orlando TRACON
Fri 08:43:01 AM 28.3000 -81.6167 336° Northwest 101 116 3,100 -50 Level Orlando TRACON
Fri 08:44:01 AM 28.3167 -81.6000 41° Northeast 91 105 3,000 -48 Descending Orlando TRACON
Fri 08:45:07 AM 28.2833 -81.6000 180° South 120 138 3,000  Level Orlando TRACON
Fri 08:46:01 AM 28.2667 -81.6167 221° Southwest 115 132 3,000  Level Orlando TRACON
Fri 08:47:01 AM 28.2833 -81.6333 319° Northwest 94 108 3,000 50 Level Orlando TRACON
Fri 08:48:01 AM 28.3000 -81.6167 41° Northeast 85 98 3,100  Climbing Orlando TRACON
Fri 08:48:55 AM 28.3167 -81.6000 41° Northeast 88 101 3,000 -52 Descending Orlando TRACON
Fri 08:49:56 AM 28.3000 -81.6000 180° South 117 135 3,000  Level Orlando TRACON
Fri 08:50:55 AM 28.2833 -81.6167 221° Southwest 100 115 3,000  Level Orlando TRACON
Fri 08:51:56 AM 28.3000 -81.6167 360° North 89 102 3,000 50 Level Orlando TRACON
Fri 08:52:56 AM 28.3000 -81.5833 90° East 104 120 3,100  Climbing Orlando TRACON
Fri 08:53:56 AM 28.2833 -81.6000 221° Southwest 114 131 3,000 -50 Descending Orlando TRACON
Fri 08:54:56 AM 28.2833 -81.6333 270° West 99 114 3,000 50 Level Orlando TRACON
Fri 08:55:56 AM 28.3000 -81.6167 41° Northeast 85 98 3,100 50 Climbing Orlando TRACON
Fri 08:56:56 AM 28.3167 -81.5833 60° Northeast 101 116 3,100 -50 Level Orlando TRACON
Fri 08:57:56 AM 28.2833 -81.5833 180° South 114 131 3,000 -50 Descending Orlando TRACON
Fri 08:58:56 AM 28.2500 -81.5833 180° South 114 131 3,000 50 Level Orlando TRACON
Fri 08:59:56 AM 28.2167 -81.5833 180° South 113 130 3,100 52 Climbing Orlando TRACON
Fri 09:00:51 AM 28.1833 -81.5833 180° South 113 130 3,100 -52 Level Orlando TRACON
Fri 09:01:51 AM 28.1500 -81.5833 180° South 115 132 3,000  Descending Orlando TRACON
Fri 09:02:51 AM 28.1333 -81.5833 180° South 104 120 3,100 -190 Climbing Orlando TRACON
Fri 09:03:57 AM 28.1333 -81.5333 90° East 112 129 2,600 -381 Descending Orlando TRACON
Fri 09:04:57 AM 28.1167 -81.5000 120° Southeast 119 137 2,300 -200 Descending Orlando TRACON
Fri 09:05:57 AM 28.1167 -81.5000 120° Southeast 99 114 2,200  Descending Orlando TRACON
Fri 09:06:52 AM 28.1500 -81.5000 360° North 92 106 2,300 52 Climbing Orlando TRACON
Fri 09:07:52 AM 28.1667 -81.4833 41° Northeast 84 97 2,300  Level Orlando TRACON
Fri 09:08:58 AM 28.2000 -81.4833 360° North 87 100 2,300  Level Orlando TRACON
Fri 09:09:58 AM 28.2167 -81.4667 41° Northeast 89 102 2,300 -350 Level Orlando TRACON
Fri 09:10:58 AM 28.2333 -81.4667 360° North 77 89 1,600 -756 Descending Orlando TRACON
Fri 09:12:05 AM 28.2667 -81.4500 24° Northeast 72 83 700 -425 Descending Orlando TRACON
Fri 09:13:05 AM 28.2833 -81.4500 360° North 68 78 700 250 Level Orlando TRACON
Fri 09:14:05 AM 28.3000 -81.4500 360° North 84 97 1,200 550 Climbing Orlando TRACON
Fri 09:15:05 AM 28.2833 -81.4833 240° Southwest 102 117 1,800 450 Climbing Orlando TRACON
Fri 09:16:05 AM 28.2833 -81.5000 270° West 119 137 2,100 200 Climbing Orlando TRACON
Fri 09:17:05 AM 28.2500 -81.5000 180° South 114 131 2,200 50 Climbing Orlando TRACON
Fri 09:18:05 AM 28.2167 -81.5000 180° South 117 135 2,200  Level Orlando TRACON
Fri 09:19:05 AM 28.1833 -81.5000 180° South 122 140 2,200 -50 Level Orlando TRACON
Fri 09:20:05 AM 28.1500 -81.4833 156° South 114 131 2,100  Descending Orlando TRACON
Fri 09:21:05 AM 28.1167 -81.4667 156° South 109 125 2,200 50 Climbing Orlando TRACON
Fri 09:22:06 AM 28.1000 -81.4500 139° Southeast 114 131 2,200 -50 Level Orlando TRACON
Fri 09:23:06 AM 28.1000 -81.4333 90° East 99 114 2,100  Descending Orlando TRACON
Fri 09:24:06 AM 28.1000 -81.4000 90° East 93 107 2,200  Climbing Orlando TRACON
Fri 09:25:06 AM 28.1167 -81.3833 41° Northeast 93 107 2,100 -150 Descending Orlando TRACON
Fri 09:26:06 AM 28.1333 -81.3500 60° Northeast 100 115 1,900 -150 Descending Orlando TRACON
Fri 09:27:06 AM 28.1667 -81.3667 336° Northwest 81 93 1,800 -52 Descending Orlando TRACON
Fri 09:28:01 AM 28.1833 -81.3667 360° North 80 92 1,800  Level Orlando TRACON
Fri 09:29:01 AM 28.2000 -81.3833 319° Northwest 90 104 1,800 -150 Level Orlando TRACON
Fri 09:30:01 AM 28.2333 -81.4000 336° Northwest 84 97 1,500 -400 Descending Orlando TRACON
Fri 09:31:01 AM 28.2500 -81.4000 360° North 77 89 1,000 -500 Descending Orlando TRACON
Fri 09:32:01 AM 28.2667 -81.4167 319° Northwest 85 98 500 -500 Descending Orlando TRACON
Fri 09:34:00 AM 28.2833 -81.4333 19° North  Level FlightAware Approximate

Login

Don't have an account? Register now (free) for customized features, flight alerts, and more!